createdAt,value
2023-05-19T00:11:44.760Z,11.7
2023-05-19T00:26:54.713Z,11.6
2023-05-19T00:42:04.113Z,11.5
2023-05-19T00:57:13.670Z,11.4
2023-05-19T01:12:22.954Z,11.3
2023-05-19T01:27:32.818Z,11.3
2023-05-19T01:42:42.456Z,11.2
2023-05-19T01:57:52.319Z,11.2
2023-05-19T02:13:02.000Z,11.1
2023-05-19T02:28:11.809Z,11
2023-05-19T02:43:21.919Z,10.9
2023-05-19T02:58:31.784Z,10.8
2023-05-19T03:13:41.397Z,10.7
2023-05-19T03:28:53.571Z,10.5
2023-05-19T03:44:03.144Z,10.4
2023-05-19T03:59:12.525Z,10.3
2023-05-19T04:14:22.024Z,10.2
2023-05-19T04:29:32.276Z,10.2
2023-05-19T04:44:42.422Z,10.1
2023-05-19T04:59:52.492Z,10
2023-05-19T05:15:02.375Z,9.9
2023-05-19T05:30:12.356Z,9.9
2023-05-19T05:45:22.110Z,9.9
2023-05-19T06:00:32.587Z,10.1
2023-05-19T06:15:43.815Z,10.3
2023-05-19T06:30:54.098Z,10.6
2023-05-19T06:46:04.250Z,10.9
2023-05-19T07:01:14.102Z,11.3
2023-05-19T07:16:24.804Z,11.7
2023-05-19T07:31:35.747Z,12
2023-05-19T07:46:46.493Z,12.3
2023-05-19T08:01:57.419Z,12.7
2023-05-19T08:17:07.995Z,13.1
2023-05-19T08:32:17.954Z,13.4
2023-05-19T08:47:28.857Z,13.8
2023-05-19T09:02:46.386Z,14
2023-05-19T09:18:34.062Z,14.4
2023-05-19T09:33:45.982Z,14.7
2023-05-19T09:48:56.759Z,15.1
2023-05-19T10:04:06.812Z,15.5
2023-05-19T10:19:19.868Z,15.8
2023-05-19T10:34:30.733Z,16
2023-05-19T10:49:40.616Z,16.3
2023-05-19T11:04:51.588Z,16.5
2023-05-19T11:20:02.658Z,16.9
2023-05-19T11:35:13.739Z,17.4
2023-05-19T11:50:25.178Z,18.3
2023-05-19T12:05:39.274Z,18.6
2023-05-19T12:20:55.985Z,20.9
2023-05-19T12:36:06.439Z,20.8
2023-05-19T12:51:16.669Z,21.2
2023-05-19T13:06:28.374Z,22
2023-05-19T13:21:40.925Z,21.4
2023-05-19T13:36:50.314Z,21.7
2023-05-19T13:52:01.852Z,22.7
2023-05-19T14:07:11.848Z,22.5
2023-05-19T14:22:21.793Z,22.3
2023-05-19T14:37:30.872Z,22
2023-05-19T14:52:42.451Z,24.5
2023-05-19T15:07:52.225Z,24.5
2023-05-19T15:23:02.704Z,25.2
2023-05-19T15:38:11.746Z,23.4
2023-05-19T15:53:20.577Z,22.5
2023-05-19T16:08:29.647Z,21.4
2023-05-19T16:23:40.823Z,21.3
2023-05-19T16:38:50.867Z,21.1
2023-05-19T16:54:00.215Z,20.5
2023-05-19T17:09:10.112Z,20
2023-05-19T17:24:19.315Z,19.5
2023-05-19T17:39:28.931Z,19.3
2023-05-19T17:54:40.675Z,19
2023-05-19T18:09:50.653Z,18.9
2023-05-19T18:25:00.061Z,18.7
2023-05-19T18:40:10.037Z,18.5
2023-05-19T18:55:20.066Z,18.4
2023-05-19T19:10:30.069Z,18.2
2023-05-19T19:25:40.848Z,18
2023-05-19T19:40:50.601Z,17.8
2023-05-19T19:56:00.174Z,17.7
2023-05-19T20:11:10.265Z,17.6
2023-05-19T20:26:19.784Z,17.5
2023-05-19T20:41:29.434Z,17.4
2023-05-19T20:56:39.729Z,17.2
2023-05-19T21:11:50.252Z,17
2023-05-19T21:26:59.974Z,16.7
2023-05-19T21:42:09.610Z,16.5
2023-05-19T21:57:19.380Z,16.3
2023-05-19T22:12:29.093Z,16
2023-05-19T22:27:39.349Z,15.8
2023-05-19T22:42:49.040Z,15.6
2023-05-19T22:57:58.949Z,15.4
2023-05-19T23:13:08.604Z,15.1
2023-05-19T23:28:18.439Z,15
2023-05-19T23:43:27.983Z,14.9
2023-05-19T23:58:37.223Z,14.7
